sensor_id;sensor_type;location;lat;lon;timestamp;pressure;altitude;pressure_sealevel;temperature;humidity
41866;BME280;27539;43.222;27.558;2022-09-14T00:00:28;100267.03;;;15.63;100.00
41866;BME280;27539;43.222;27.558;2022-09-14T00:02:54;100261.00;;;15.35;100.00
41866;BME280;27539;43.222;27.558;2022-09-14T00:05:20;100268.22;;;15.46;100.00
41866;BME280;27539;43.222;27.558;2022-09-14T00:07:45;100256.47;;;15.39;100.00
41866;BME280;27539;43.222;27.558;2022-09-14T00:10:11;100270.78;;;15.43;100.00
41866;BME280;27539;43.222;27.558;2022-09-14T00:12:37;100267.75;;;15.24;100.00
41866;BME280;27539;43.222;27.558;2022-09-14T00:15:03;100277.84;;;15.25;100.00
41866;BME280;27539;43.222;27.558;2022-09-14T00:17:29;100281.28;;;14.96;100.00
41866;BME280;27539;43.222;27.558;2022-09-14T00:19:54;100281.28;;;14.86;100.00
41866;BME280;27539;43.222;27.558;2022-09-14T00:22:20;100256.91;;;14.97;100.00
41866;BME280;27539;43.222;27.558;2022-09-14T00:24:45;100258.56;;;15.03;100.00
41866;BME280;27539;43.222;27.558;2022-09-14T00:27:11;100254.38;;;15.05;100.00
41866;BME280;27539;43.222;27.558;2022-09-14T00:29:36;100272.22;;;15.35;100.00
41866;BME280;27539;43.222;27.558;2022-09-14T00:32:02;100265.53;;;15.21;100.00
41866;BME280;27539;43.222;27.558;2022-09-14T00:34:27;100273.91;;;15.26;100.00
41866;BME280;27539;43.222;27.558;2022-09-14T00:36:53;100266.06;;;15.28;100.00
41866;BME280;27539;43.222;27.558;2022-09-14T00:39:21;100259.72;;;14.91;100.00
41866;BME280;27539;43.222;27.558;2022-09-14T00:41:49;100269.22;;;15.01;100.00
41866;BME280;27539;43.222;27.558;2022-09-14T00:46:49;100253.34;;;14.60;100.00
41866;BME280;27539;43.222;27.558;2022-09-14T00:49:31;100262.81;;;14.49;100.00
41866;BME280;27539;43.222;27.558;2022-09-14T00:54:23;100282.16;;;14.66;100.00
41866;BME280;27539;43.222;27.558;2022-09-14T00:56:48;100268.72;;;14.78;100.00
41866;BME280;27539;43.222;27.558;2022-09-14T00:59:18;100269.25;;;14.85;100.00
41866;BME280;27539;43.222;27.558;2022-09-14T01:01:44;100274.56;;;14.92;100.00
41866;BME280;27539;43.222;27.558;2022-09-14T01:04:10;100280.75;;;14.74;100.00
41866;BME280;27539;43.222;27.558;2022-09-14T01:10:20;100284.13;;;14.60;100.00
41866;BME280;27539;43.222;27.558;2022-09-14T01:17:31;100287.75;;;14.40;100.00
41866;BME280;27539;43.222;27.558;2022-09-14T01:20:26;100259.44;;;14.01;100.00
41866;BME280;27539;43.222;27.558;2022-09-14T01:26:00;100289.44;;;14.57;100.00
41866;BME280;27539;43.222;27.558;2022-09-14T01:28:36;100292.81;;;14.54;100.00
41866;BME280;27539;43.222;27.558;2022-09-14T01:31:10;100291.94;;;14.48;100.00
41866;BME280;27539;43.222;27.558;2022-09-14T01:33:46;100292.22;;;14.41;100.00
41866;BME280;27539;43.222;27.558;2022-09-14T01:36:16;100290.25;;;14.47;100.00
41866;BME280;27539;43.222;27.558;2022-09-14T01:38:42;100291.38;;;14.36;100.00
41866;BME280;27539;43.222;27.558;2022-09-14T01:41:12;100299.19;;;14.18;100.00
41866;BME280;27539;43.222;27.558;2022-09-14T01:43:55;100290.53;;;14.10;100.00
41866;BME280;27539;43.222;27.558;2022-09-14T01:46:38;100288.81;;;13.98;100.00
41866;BME280;27539;43.222;27.558;2022-09-14T01:49:12;100304.69;;;13.67;100.00
41866;BME280;27539;43.222;27.558;2022-09-14T01:51:45;100285.84;;;13.42;100.00
41866;BME280;27539;43.222;27.558;2022-09-14T01:54:32;100301.28;;;13.60;100.00
41866;BME280;27539;43.222;27.558;2022-09-14T02:00:20;100261.56;;;13.48;100.00
41866;BME280;27539;43.222;27.558;2022-09-14T02:02:52;100285.63;;;13.64;100.00
41866;BME280;27539;43.222;27.558;2022-09-14T02:05:20;100295.19;;;13.83;100.00
41866;BME280;27539;43.222;27.558;2022-09-14T02:07:47;100301.34;;;13.75;100.00
41866;BME280;27539;43.222;27.558;2022-09-14T02:10:14;100304.72;;;13.82;100.00
41866;BME280;27539;43.222;27.558;2022-09-14T02:12:41;100275.88;;;13.72;100.00
41866;BME280;27539;43.222;27.558;2022-09-14T02:15:09;100284.47;;;13.45;100.00
41866;BME280;27539;43.222;27.558;2022-09-14T02:17:36;100312.16;;;13.56;100.00
41866;BME280;27539;43.222;27.558;2022-09-14T02:20:04;100323.06;;;13.53;100.00
41866;BME280;27539;43.222;27.558;2022-09-14T02:22:31;100309.06;;;13.48;100.00
41866;BME280;27539;43.222;27.558;2022-09-14T02:24:57;100306.88;;;13.55;100.00
41866;BME280;27539;43.222;27.558;2022-09-14T02:27:23;100295.09;;;13.48;100.00
41866;BME280;27539;43.222;27.558;2022-09-14T02:29:50;100306.59;;;13.61;100.00
41866;BME280;27539;43.222;27.558;2022-09-14T02:32:38;100300.47;;;13.65;100.00
41866;BME280;27539;43.222;27.558;2022-09-14T02:38:00;100301.63;;;13.21;100.00
41866;BME280;27539;43.222;27.558;2022-09-14T02:40:35;100305.41;;;13.42;100.00
41866;BME280;27539;43.222;27.558;2022-09-14T02:43:05;100307.47;;;13.14;100.00
41866;BME280;27539;43.222;27.558;2022-09-14T02:56:21;100290.25;;;13.28;100.00
41866;BME280;27539;43.222;27.558;2022-09-14T02:58:47;100294.78;;;13.44;100.00
41866;BME280;27539;43.222;27.558;2022-09-14T03:01:17;100289.28;;;13.07;100.00
41866;BME280;27539;43.222;27.558;2022-09-14T03:03:43;100292.69;;;13.19;100.00
41866;BME280;27539;43.222;27.558;2022-09-14T03:06:08;100283.84;;;13.27;100.00
41866;BME280;27539;43.222;27.558;2022-09-14T03:08:34;100276.22;;;13.17;100.00
41866;BME280;27539;43.222;27.558;2022-09-14T03:11:00;100231.66;;;12.90;100.00
41866;BME280;27539;43.222;27.558;2022-09-14T03:13:26;100295.03;;;13.32;100.00
41866;BME280;27539;43.222;27.558;2022-09-14T03:15:52;100249.53;;;12.89;100.00
41866;BME280;27539;43.222;27.558;2022-09-14T03:18:18;100297.66;;;13.07;100.00
41866;BME280;27539;43.222;27.558;2022-09-14T03:20:44;100285.63;;;13.06;100.00
41866;BME280;27539;43.222;27.558;2022-09-14T03:23:10;100296.81;;;13.11;100.00
41866;BME280;27539;43.222;27.558;2022-09-14T03:25:38;100264.56;;;12.83;100.00
41866;BME280;27539;43.222;27.558;2022-09-14T03:28:04;100295.34;;;12.98;100.00
41866;BME280;27539;43.222;27.558;2022-09-14T03:30:30;100309.66;;;13.07;100.00
41866;BME280;27539;43.222;27.558;2022-09-14T03:32:57;100316.31;;;13.01;100.00
41866;BME280;27539;43.222;27.558;2022-09-14T03:35:23;100320.00;;;13.07;100.00
41866;BME280;27539;43.222;27.558;2022-09-14T03:37:49;100316.53;;;12.89;100.00
41866;BME280;27539;43.222;27.558;2022-09-14T03:40:16;100326.09;;;13.04;100.00
41866;BME280;27539;43.222;27.558;2022-09-14T03:42:46;100321.94;;;13.06;100.00
41866;BME280;27539;43.222;27.558;2022-09-14T03:45:14;100309.72;;;12.75;100.00
41866;BME280;27539;43.222;27.558;2022-09-14T03:47:40;100330.53;;;12.94;100.00
41866;BME280;27539;43.222;27.558;2022-09-14T03:50:08;100336.47;;;13.08;100.00
41866;BME280;27539;43.222;27.558;2022-09-14T03:52:34;100334.41;;;12.93;100.00
41866;BME280;27539;43.222;27.558;2022-09-14T03:55:01;100324.19;;;13.04;100.00
41866;BME280;27539;43.222;27.558;2022-09-14T03:57:26;100312.06;;;12.93;100.00
41866;BME280;27539;43.222;27.558;2022-09-14T03:59:52;100338.25;;;12.82;100.00
41866;BME280;27539;43.222;27.558;2022-09-14T04:02:17;100344.53;;;13.00;100.00
41866;BME280;27539;43.222;27.558;2022-09-14T04:04:43;100326.66;;;12.63;100.00
41866;BME280;27539;43.222;27.558;2022-09-14T04:07:09;100308.50;;;12.61;100.00
41866;BME280;27539;43.222;27.558;2022-09-14T04:09:34;100337.94;;;12.79;100.00
41866;BME280;27539;43.222;27.558;2022-09-14T04:12:00;100347.50;;;12.88;100.00
41866;BME280;27539;43.222;27.558;2022-09-14T04:14:26;100340.69;;;13.11;100.00
41866;BME280;27539;43.222;27.558;2022-09-14T04:16:51;100347.06;;;13.06;100.00
41866;BME280;27539;43.222;27.558;2022-09-14T04:19:17;100337.31;;;13.09;100.00
41866;BME280;27539;43.222;27.558;2022-09-14T04:21:42;100322.19;;;13.00;100.00
41866;BME280;27539;43.222;27.558;2022-09-14T04:24:10;100341.13;;;13.30;100.00
41866;BME280;27539;43.222;27.558;2022-09-14T04:26:37;100348.41;;;13.36;100.00
41866;BME280;27539;43.222;27.558;2022-09-14T04:29:03;100313.44;;;13.28;100.00
41866;BME280;27539;43.222;27.558;2022-09-14T04:31:28;100321.41;;;13.52;100.00
41866;BME280;27539;43.222;27.558;2022-09-14T04:33:55;100343.28;;;13.75;100.00
41866;BME280;27539;43.222;27.558;2022-09-14T04:36:22;100329.91;;;13.88;100.00
41866;BME280;27539;43.222;27.558;2022-09-14T04:38:52;100354.59;;;14.21;100.00
41866;BME280;27539;43.222;27.558;2022-09-14T04:41:19;100353.22;;;14.34;100.00
41866;BME280;27539;43.222;27.558;2022-09-14T04:43:46;100349.59;;;14.49;100.00
41866;BME280;27539;43.222;27.558;2022-09-14T04:46:16;100352.72;;;14.63;100.00
41866;BME280;27539;43.222;27.558;2022-09-14T04:48:42;100361.69;;;14.85;100.00
41866;BME280;27539;43.222;27.558;2022-09-14T04:51:18;100340.38;;;14.84;100.00
41866;BME280;27539;43.222;27.558;2022-09-14T04:53:50;100364.19;;;15.12;100.00
41866;BME280;27539;43.222;27.558;2022-09-14T04:56:17;100346.50;;;15.12;100.00
41866;BME280;27539;43.222;27.558;2022-09-14T04:58:44;100360.19;;;15.34;100.00
41866;BME280;27539;43.222;27.558;2022-09-14T05:01:13;100359.59;;;15.52;100.00
41866;BME280;27539;43.222;27.558;2022-09-14T05:03:39;100351.16;;;15.63;100.00
41866;BME280;27539;43.222;27.558;2022-09-14T05:06:07;100362.31;;;15.83;100.00
41866;BME280;27539;43.222;27.558;2022-09-14T05:08:34;100328.09;;;15.81;100.00
41866;BME280;27539;43.222;27.558;2022-09-14T05:11:01;100329.19;;;15.90;100.00
41866;BME280;27539;43.222;27.558;2022-09-14T05:13:26;100349.47;;;16.22;100.00
41866;BME280;27539;43.222;27.558;2022-09-14T05:15:52;100350.16;;;16.42;100.00
41866;BME280;27539;43.222;27.558;2022-09-14T05:18:18;100352.31;;;16.61;100.00
41866;BME280;27539;43.222;27.558;2022-09-14T05:20:44;100342.09;;;16.70;100.00
41866;BME280;27539;43.222;27.558;2022-09-14T05:23:09;100343.69;;;16.87;100.00
41866;BME280;27539;43.222;27.558;2022-09-14T05:25:35;100351.91;;;17.07;100.00
41866;BME280;27539;43.222;27.558;2022-09-14T05:28:01;100304.25;;;16.97;100.00
41866;BME280;27539;43.222;27.558;2022-09-14T05:30:26;100349.84;;;17.18;100.00
41866;BME280;27539;43.222;27.558;2022-09-14T05:36:16;100325.91;;;17.20;100.00
41866;BME280;27539;43.222;27.558;2022-09-14T05:38:42;100342.47;;;17.51;100.00
41866;BME280;27539;43.222;27.558;2022-09-14T05:41:10;100341.25;;;17.57;100.00
41866;BME280;27539;43.222;27.558;2022-09-14T07:21:48;100330.66;;;22.09;74.46
41866;BME280;27539;43.222;27.558;2022-09-14T07:24:14;100388.63;;;22.77;76.88
41866;BME280;27539;43.222;27.558;2022-09-14T07:26:41;100379.81;;;23.05;67.67
41866;BME280;27539;43.222;27.558;2022-09-14T07:29:10;100372.28;;;23.00;65.03
41866;BME280;27539;43.222;27.558;2022-09-14T07:31:40;100377.09;;;23.26;65.24
41866;BME280;27539;43.222;27.558;2022-09-14T07:34:06;100372.72;;;23.28;62.02
41866;BME280;27539;43.222;27.558;2022-09-14T07:36:34;100372.59;;;23.16;60.26
41866;BME280;27539;43.222;27.558;2022-09-14T07:38:59;100377.25;;;23.21;61.53
41866;BME280;27539;43.222;27.558;2022-09-14T07:41:27;100385.75;;;23.38;60.04
41866;BME280;27539;43.222;27.558;2022-09-14T07:43:57;100366.25;;;23.66;59.63
41866;BME280;27539;43.222;27.558;2022-09-14T07:46:25;100322.59;;;23.50;58.93
41866;BME280;27539;43.222;27.558;2022-09-14T07:48:55;100357.06;;;24.08;58.06
41866;BME280;27539;43.222;27.558;2022-09-14T07:51:21;100352.63;;;24.19;56.24
41866;BME280;27539;43.222;27.558;2022-09-14T07:53:48;100311.75;;;23.82;56.64
41866;BME280;27539;43.222;27.558;2022-09-14T07:56:14;100358.53;;;24.35;56.03
41866;BME280;27539;43.222;27.558;2022-09-14T07:58:40;100362.44;;;24.30;55.54
41866;BME280;27539;43.222;27.558;2022-09-14T08:01:09;100356.56;;;24.35;54.34
41866;BME280;27539;43.222;27.558;2022-09-14T08:03:36;100349.09;;;24.52;54.92
41866;BME280;27539;43.222;27.558;2022-09-14T08:06:09;100354.44;;;24.53;55.46
41866;BME280;27539;43.222;27.558;2022-09-14T08:08:36;100352.75;;;24.73;54.42
41866;BME280;27539;43.222;27.558;2022-09-14T08:11:07;100342.75;;;24.88;51.64
41866;BME280;27539;43.222;27.558;2022-09-14T08:13:36;100356.09;;;25.09;52.04
41866;BME280;27539;43.222;27.558;2022-09-14T08:16:02;100350.00;;;25.19;50.84
41866;BME280;27539;43.222;27.558;2022-09-14T08:18:29;100327.34;;;25.22;49.10
41866;BME280;27539;43.222;27.558;2022-09-14T08:20:55;100349.97;;;25.64;53.12
41866;BME280;27539;43.222;27.558;2022-09-14T08:23:21;100353.16;;;25.63;48.96
41866;BME280;27539;43.222;27.558;2022-09-14T08:25:47;100339.16;;;25.82;49.53
41866;BME280;27539;43.222;27.558;2022-09-14T08:28:13;100345.34;;;25.84;49.52
41866;BME280;27539;43.222;27.558;2022-09-14T08:30:38;100342.19;;;25.86;49.39
41866;BME280;27539;43.222;27.558;2022-09-14T08:33:04;100325.53;;;25.76;47.18
41866;BME280;27539;43.222;27.558;2022-09-14T08:35:29;100330.03;;;25.64;47.59
41866;BME280;27539;43.222;27.558;2022-09-14T08:37:54;100337.16;;;25.83;48.20
41866;BME280;27539;43.222;27.558;2022-09-14T08:40:20;100331.09;;;25.84;47.56
41866;BME280;27539;43.222;27.558;2022-09-14T08:42:46;100323.63;;;25.80;49.07
41866;BME280;27539;43.222;27.558;2022-09-14T08:45:14;100301.19;;;25.78;47.64
41866;BME280;27539;43.222;27.558;2022-09-14T08:47:41;100313.31;;;26.00;48.05
41866;BME280;27539;43.222;27.558;2022-09-14T08:50:13;100324.09;;;25.82;46.85
41866;BME280;27539;43.222;27.558;2022-09-14T08:52:44;100319.94;;;25.67;48.28
41866;BME280;27539;43.222;27.558;2022-09-14T09:09:08;100323.75;;;25.96;43.68
41866;BME280;27539;43.222;27.558;2022-09-14T09:11:43;100317.47;;;25.90;44.59
41866;BME280;27539;43.222;27.558;2022-09-14T09:16:48;100312.31;;;26.20;42.87
41866;BME280;27539;43.222;27.558;2022-09-14T09:19:29;100291.44;;;26.16;41.64
41866;BME280;27539;43.222;27.558;2022-09-14T09:21:57;100317.44;;;26.67;41.09
41866;BME280;27539;43.222;27.558;2022-09-14T09:24:35;100320.09;;;26.60;40.51
41866;BME280;27539;43.222;27.558;2022-09-14T09:27:14;100279.34;;;26.07;41.29
41866;BME280;27539;43.222;27.558;2022-09-14T09:29:40;100303.22;;;26.43;40.93
41866;BME280;27539;43.222;27.558;2022-09-14T09:32:18;100264.31;;;26.22;40.08
41866;BME280;27539;43.222;27.558;2022-09-14T09:34:45;100294.06;;;26.62;40.17
41866;BME280;27539;43.222;27.558;2022-09-14T09:37:15;100282.38;;;26.95;39.21
41866;BME280;27539;43.222;27.558;2022-09-14T09:39:42;100262.13;;;27.00;40.36
41866;BME280;27539;43.222;27.558;2022-09-14T09:42:21;100283.31;;;27.15;40.62
41866;BME280;27539;43.222;27.558;2022-09-14T09:45:04;100282.03;;;27.12;40.24
41866;BME280;27539;43.222;27.558;2022-09-14T09:47:38;100288.44;;;27.38;37.42
41866;BME280;27539;43.222;27.558;2022-09-14T09:50:16;100276.53;;;27.35;38.78
41866;BME280;27539;43.222;27.558;2022-09-14T09:52:57;100285.13;;;27.51;37.83
41866;BME280;27539;43.222;27.558;2022-09-14T09:55:28;100248.09;;;27.39;38.44
41866;BME280;27539;43.222;27.558;2022-09-14T09:58:20;100293.44;;;27.56;35.58
41866;BME280;27539;43.222;27.558;2022-09-14T10:01:00;100278.28;;;27.72;36.06
41866;BME280;27539;43.222;27.558;2022-09-14T10:03:28;100302.44;;;27.58;35.93
41866;BME280;27539;43.222;27.558;2022-09-14T10:06:05;100288.91;;;27.40;36.46
41866;BME280;27539;43.222;27.558;2022-09-14T10:08:32;100279.22;;;27.60;36.16
41866;BME280;27539;43.222;27.558;2022-09-14T10:11:01;100288.03;;;27.71;37.18
41866;BME280;27539;43.222;27.558;2022-09-14T10:13:30;100285.03;;;27.32;36.77
41866;BME280;27539;43.222;27.558;2022-09-14T10:16:15;100281.31;;;27.63;36.76
41866;BME280;27539;43.222;27.558;2022-09-14T10:18:51;100263.72;;;27.61;36.62
41866;BME280;27539;43.222;27.558;2022-09-14T10:21:21;100280.97;;;27.96;37.24
41866;BME280;27539;43.222;27.558;2022-09-14T10:24:16;100273.28;;;28.00;34.57
41866;BME280;27539;43.222;27.558;2022-09-14T10:26:44;100276.94;;;27.82;34.05
41866;BME280;27539;43.222;27.558;2022-09-14T10:29:34;100266.91;;;28.07;33.91
41866;BME280;27539;43.222;27.558;2022-09-14T10:32:10;100262.50;;;28.29;32.86
41866;BME280;27539;43.222;27.558;2022-09-14T10:34:41;100235.94;;;27.93;33.10
41866;BME280;27539;43.222;27.558;2022-09-14T10:40:14;100268.03;;;28.57;34.11
41866;BME280;27539;43.222;27.558;2022-09-14T10:42:53;100256.44;;;28.50;32.96
41866;BME280;27539;43.222;27.558;2022-09-14T10:45:38;100262.09;;;28.31;32.47
41866;BME280;27539;43.222;27.558;2022-09-14T10:53:46;100257.34;;;28.54;32.73
41866;BME280;27539;43.222;27.558;2022-09-14T10:56:18;100256.09;;;28.36;32.99
41866;BME280;27539;43.222;27.558;2022-09-14T11:01:41;100249.44;;;28.67;33.17
41866;BME280;27539;43.222;27.558;2022-09-14T11:07:36;100197.13;;;27.92;34.99
41866;BME280;27539;43.222;27.558;2022-09-14T11:15:34;100226.38;;;28.79;33.62
41866;BME280;27539;43.222;27.558;2022-09-14T11:31:40;100235.66;;;29.15;33.52
41866;BME280;27539;43.222;27.558;2022-09-14T11:34:33;100229.47;;;28.94;32.07
41866;BME280;27539;43.222;27.558;2022-09-14T11:37:10;100225.25;;;28.64;34.03
41866;BME280;27539;43.222;27.558;2022-09-14T11:39:45;100202.88;;;28.70;34.06
41866;BME280;27539;43.222;27.558;2022-09-14T11:42:26;100195.06;;;28.90;33.97
41866;BME280;27539;43.222;27.558;2022-09-14T11:45:02;100217.47;;;28.84;32.78
41866;BME280;27539;43.222;27.558;2022-09-14T11:47:39;100218.78;;;28.68;33.17
41866;BME280;27539;43.222;27.558;2022-09-14T11:50:23;100206.88;;;28.65;33.00
41866;BME280;27539;43.222;27.558;2022-09-14T11:53:00;100178.88;;;28.78;32.85
41866;BME280;27539;43.222;27.558;2022-09-14T11:55:26;100172.50;;;29.08;32.50
41866;BME280;27539;43.222;27.558;2022-09-14T11:57:52;100180.16;;;29.04;32.32
41866;BME280;27539;43.222;27.558;2022-09-14T12:05:37;100173.91;;;29.18;33.49
41866;BME280;27539;43.222;27.558;2022-09-14T12:08:23;100154.28;;;29.20;32.59
41866;BME280;27539;43.222;27.558;2022-09-14T12:13:33;100156.56;;;29.34;31.66
41866;BME280;27539;43.222;27.558;2022-09-14T12:16:06;100153.81;;;29.41;31.28
41866;BME280;27539;43.222;27.558;2022-09-14T12:18:35;100161.00;;;29.31;31.78
41866;BME280;27539;43.222;27.558;2022-09-14T12:26:30;100136.94;;;29.62;32.17
41866;BME280;27539;43.222;27.558;2022-09-14T12:29:04;100124.59;;;29.58;31.59
41866;BME280;27539;43.222;27.558;2022-09-14T12:32:00;100139.19;;;29.76;30.53
41866;BME280;27539;43.222;27.558;2022-09-14T12:34:28;100137.59;;;29.79;30.97
41866;BME280;27539;43.222;27.558;2022-09-14T12:36:59;100127.84;;;29.57;31.74
41866;BME280;27539;43.222;27.558;2022-09-14T12:39:28;100111.38;;;29.23;31.32
41866;BME280;27539;43.222;27.558;2022-09-14T12:44:38;100123.56;;;29.70;31.26
41866;BME280;27539;43.222;27.558;2022-09-14T12:50:04;100117.16;;;29.80;30.19
41866;BME280;27539;43.222;27.558;2022-09-14T12:52:56;100111.69;;;29.71;29.10
41866;BME280;27539;43.222;27.558;2022-09-14T12:55:38;100108.72;;;29.94;29.39
41866;BME280;27539;43.222;27.558;2022-09-14T12:58:55;100122.75;;;30.00;28.84
41866;BME280;27539;43.222;27.558;2022-09-14T13:01:25;100127.00;;;30.13;29.18
41866;BME280;27539;43.222;27.558;2022-09-14T13:03:55;100102.75;;;29.77;28.84
41866;BME280;27539;43.222;27.558;2022-09-14T13:06:22;100102.41;;;29.82;29.74
41866;BME280;27539;43.222;27.558;2022-09-14T13:08:52;100088.28;;;29.66;30.31
41866;BME280;27539;43.222;27.558;2022-09-14T13:11:21;100099.69;;;29.92;30.10
41866;BME280;27539;43.222;27.558;2022-09-14T13:13:48;100115.91;;;30.11;30.39
41866;BME280;27539;43.222;27.558;2022-09-14T13:16:23;100104.88;;;30.13;29.83
41866;BME280;27539;43.222;27.558;2022-09-14T13:18:59;100088.53;;;30.18;28.02
41866;BME280;27539;43.222;27.558;2022-09-14T13:21:26;100074.38;;;29.98;28.12
41866;BME280;27539;43.222;27.558;2022-09-14T13:23:51;100088.03;;;30.12;27.26
41866;BME280;27539;43.222;27.558;2022-09-14T13:26:26;100083.44;;;30.04;27.89
41866;BME280;27539;43.222;27.558;2022-09-14T13:28:53;100084.19;;;29.97;27.62
41866;BME280;27539;43.222;27.558;2022-09-14T13:31:38;100097.88;;;30.11;28.27
41866;BME280;27539;43.222;27.558;2022-09-14T13:34:04;100095.22;;;30.29;28.31
41866;BME280;27539;43.222;27.558;2022-09-14T13:36:33;100109.91;;;30.24;27.92
41866;BME280;27539;43.222;27.558;2022-09-14T13:39:01;100101.47;;;30.04;27.67
41866;BME280;27539;43.222;27.558;2022-09-14T13:41:29;100108.06;;;30.05;28.53
41866;BME280;27539;43.222;27.558;2022-09-14T13:43:56;100070.47;;;29.80;28.51
41866;BME280;27539;43.222;27.558;2022-09-14T13:46:23;100098.66;;;30.08;28.19
41866;BME280;27539;43.222;27.558;2022-09-14T13:48:50;100087.97;;;30.05;28.37
41866;BME280;27539;43.222;27.558;2022-09-14T13:51:22;100090.53;;;30.13;27.95
41866;BME280;27539;43.222;27.558;2022-09-14T13:53:50;100088.50;;;29.84;28.24
41866;BME280;27539;43.222;27.558;2022-09-14T13:56:33;100087.09;;;30.01;27.84
41866;BME280;27539;43.222;27.558;2022-09-14T14:01:40;100104.22;;;29.93;28.06
41866;BME280;27539;43.222;27.558;2022-09-14T14:07:01;100106.06;;;30.43;28.50
41866;BME280;27539;43.222;27.558;2022-09-14T14:09:38;100076.63;;;30.53;27.97
41866;BME280;27539;43.222;27.558;2022-09-14T14:12:06;100089.47;;;30.66;27.31
41866;BME280;27539;43.222;27.558;2022-09-14T14:14:31;100084.06;;;30.57;27.29
41866;BME280;27539;43.222;27.558;2022-09-14T14:19:38;100094.97;;;30.41;27.13
41866;BME280;27539;43.222;27.558;2022-09-14T14:24:47;100112.63;;;30.47;27.23
41866;BME280;27539;43.222;27.558;2022-09-14T14:27:34;100102.50;;;30.56;26.59
41866;BME280;27539;43.222;27.558;2022-09-14T14:30:07;100073.75;;;30.15;25.71
41866;BME280;27539;43.222;27.558;2022-09-14T14:32:37;100111.47;;;30.51;26.54
41866;BME280;27539;43.222;27.558;2022-09-14T14:35:06;100086.94;;;30.57;26.01
41866;BME280;27539;43.222;27.558;2022-09-14T14:37:37;100118.28;;;30.77;26.04
41866;BME280;27539;43.222;27.558;2022-09-14T14:40:03;100096.09;;;30.74;25.89
41866;BME280;27539;43.222;27.558;2022-09-14T14:42:29;100121.41;;;31.02;25.88
41866;BME280;27539;43.222;27.558;2022-09-14T14:44:54;100089.53;;;30.73;25.26
41866;BME280;27539;43.222;27.558;2022-09-14T14:47:20;100109.38;;;30.89;25.64
41866;BME280;27539;43.222;27.558;2022-09-14T14:49:47;100111.09;;;30.56;25.70
41866;BME280;27539;43.222;27.558;2022-09-14T14:52:12;100110.81;;;30.69;25.96
41866;BME280;27539;43.222;27.558;2022-09-14T14:54:38;100111.63;;;30.66;26.36
41866;BME280;27539;43.222;27.558;2022-09-14T14:57:07;100110.47;;;30.33;26.60
41866;BME280;27539;43.222;27.558;2022-09-14T14:59:33;100096.09;;;30.33;26.85
41866;BME280;27539;43.222;27.558;2022-09-14T15:01:58;100116.69;;;30.42;26.55
41866;BME280;27539;43.222;27.558;2022-09-14T15:04:24;100090.97;;;30.15;27.18
41866;BME280;27539;43.222;27.558;2022-09-14T15:06:49;100109.03;;;30.53;27.32
41866;BME280;27539;43.222;27.558;2022-09-14T15:09:18;100116.63;;;30.76;27.91
41866;BME280;27539;43.222;27.558;2022-09-14T15:11:44;100088.03;;;30.46;27.68
41866;BME280;27539;43.222;27.558;2022-09-14T15:14:11;100112.34;;;30.55;28.12
41866;BME280;27539;43.222;27.558;2022-09-14T15:16:37;100117.19;;;30.48;27.65
41866;BME280;27539;43.222;27.558;2022-09-14T15:19:03;100105.78;;;30.55;28.38
41866;BME280;27539;43.222;27.558;2022-09-14T15:21:28;100116.38;;;30.51;28.25
41866;BME280;27539;43.222;27.558;2022-09-14T15:23:54;100103.19;;;30.43;28.11
41866;BME280;27539;43.222;27.558;2022-09-14T15:26:20;100115.38;;;30.32;28.33
41866;BME280;27539;43.222;27.558;2022-09-14T15:28:45;100113.34;;;30.03;28.56
41866;BME280;27539;43.222;27.558;2022-09-14T15:31:13;100108.25;;;29.89;29.14
41866;BME280;27539;43.222;27.558;2022-09-14T15:33:38;100069.00;;;29.36;28.79
41866;BME280;27539;43.222;27.558;2022-09-14T15:36:04;100080.31;;;29.25;29.69
41866;BME280;27539;43.222;27.558;2022-09-14T15:38:29;100102.63;;;29.13;29.49
41866;BME280;27539;43.222;27.558;2022-09-14T15:40:55;100106.13;;;28.79;30.56
41866;BME280;27539;43.222;27.558;2022-09-14T15:43:20;100118.91;;;28.43;31.01
41866;BME280;27539;43.222;27.558;2022-09-14T15:45:46;100087.13;;;28.06;31.45
41866;BME280;27539;43.222;27.558;2022-09-14T15:48:16;100101.88;;;28.08;31.64
41866;BME280;27539;43.222;27.558;2022-09-14T15:50:43;100057.03;;;27.73;31.79
41866;BME280;27539;43.222;27.558;2022-09-14T15:53:10;100068.69;;;27.64;32.39
41866;BME280;27539;43.222;27.558;2022-09-14T15:55:40;100099.53;;;27.74;33.19
41866;BME280;27539;43.222;27.558;2022-09-14T15:58:06;100105.16;;;27.51;33.09
41866;BME280;27539;43.222;27.558;2022-09-14T16:00:33;100086.28;;;27.31;33.01
41866;BME280;27539;43.222;27.558;2022-09-14T16:02:58;100078.19;;;27.17;33.59
41866;BME280;27539;43.222;27.558;2022-09-14T16:05:24;100072.19;;;26.71;34.42
41866;BME280;27539;43.222;27.558;2022-09-14T16:07:53;100084.41;;;26.56;34.83
41866;BME280;27539;43.222;27.558;2022-09-14T16:10:19;100087.66;;;26.26;35.53
41866;BME280;27539;43.222;27.558;2022-09-14T16:12:44;100064.63;;;25.62;36.67
41866;BME280;27539;43.222;27.558;2022-09-14T16:15:10;100082.78;;;25.58;36.62
41866;BME280;27539;43.222;27.558;2022-09-14T16:17:35;100082.97;;;25.37;37.05
41866;BME280;27539;43.222;27.558;2022-09-14T16:20:03;100056.31;;;25.05;37.31
41866;BME280;27539;43.222;27.558;2022-09-14T16:22:29;100095.22;;;25.25;37.46